Time;durP1;ratioP1;P1;durP2;ratioP2;P2;SDS_P1;SDS_P2;PMS_P1;PMS_P2;Temp;Humidity;BMP_temperature;BMP_pressure;BME280_temperature;BME280_humidity;BME280_pressure;Samples;Min_cycle;Max_cycle;Signal;HPM_P1;HPM_P2
2024/02/11 00:02:37;;;;;;;;;;;;;;;8.52;94.81;97823.78;137078;1276;22400;-76
2024/02/11 00:05:37;;;;;;;;;;;;;;;8.56;94.42;97820.92;137111;1276;22385;-76
2024/02/11 00:08:39;;;;;;;;;;;;;;;8.57;93.96;97818.20;137151;1276;22523;-76
2024/02/11 00:11:40;;;;;;;;;;;;;;;8.60;93.61;97819.23;137145;1276;23141;-76
2024/02/11 00:14:44;;;;;;;;;;;;;;;8.62;93.18;97816.92;137118;1272;22391;-76
2024/02/11 00:17:50;;;;;;;;;;;;;;;8.65;93.27;97815.07;137175;1276;22288;-76
2024/02/11 00:20:54;;;;;;;;;;;;;;;8.66;93.29;97815.27;137134;1276;22522;-77
2024/02/11 00:23:55;;;;;;;;;;;;;;;8.67;92.88;97810.88;137166;1276;22384;-76
2024/02/11 00:27:06;;;;;;;;;;;;;;;8.70;92.74;97815.77;137148;1277;22454;-76
2024/02/11 00:33:51;;;;;;;;;;;;;;;8.72;92.27;97813.30;136997;1276;22451;-76
2024/02/11 00:36:52;;;;;;;;;;;;;;;8.74;92.24;97820.52;137156;1277;22451;-76
2024/02/11 00:40:01;;;;;;;;;;;;;;;8.76;91.71;97816.60;137190;1276;22387;-76
2024/02/11 00:46:39;;;;;;;;;;;;;;;8.84;91.22;97814.89;136971;1276;23082;-76
2024/02/11 00:50:11;;;;;;;;;;;;;;;8.86;91.15;97812.40;137108;1273;22382;-77
2024/02/11 00:53:59;;;;;;;;;;;;;;;8.89;91.18;97814.14;136985;1276;23157;-76
2024/02/11 00:56:56;;;;;;;;;;;;;;;8.92;90.87;97812.13;137071;1276;23354;-76
2024/02/11 01:00:21;;;;;;;;;;;;;;;;;;;;;
2024/02/11 01:03:24;;;;;;;;;;;;;;;8.99;90.33;97803.25;137134;1277;22276;-76
2024/02/11 01:06:25;;;;;;;;;;;;;;;9.04;90.19;97802.09;137146;1277;23463;-76
2024/02/11 01:09:26;;;;;;;;;;;;;;;9.07;90.14;97807.48;137127;1276;23137;-76
2024/02/11 01:12:26;;;;;;;;;;;;;;;9.10;89.91;97808.10;137115;1273;22430;-76
2024/02/11 01:15:27;;;;;;;;;;;;;;;9.16;90.03;97807.83;137147;1273;22423;-76
2024/02/11 01:18:28;;;;;;;;;;;;;;;9.22;89.66;97803.80;137114;1276;23185;-76
2024/02/11 01:21:29;;;;;;;;;;;;;;;9.28;89.73;97803.52;137131;1276;22403;-76
2024/02/11 01:24:33;;;;;;;;;;;;;;;9.31;89.65;97800.05;137152;1276;23065;-76
2024/02/11 01:31:03;;;;;;;;;;;;;;;9.38;89.05;97798.95;137117;1276;22473;-76
2024/02/11 01:34:05;;;;;;;;;;;;;;;9.40;89.12;97796.30;137146;1276;22408;-76
2024/02/11 01:37:15;;;;;;;;;;;;;;;9.39;89.02;97798.51;137130;1276;22274;-77
2024/02/11 01:40:24;;;;;;;;;;;;;;;9.40;88.93;97798.41;137127;1276;22398;-76
2024/02/11 01:43:25;;;;;;;;;;;;;;;9.41;88.72;97796.75;137137;1273;23428;-76
2024/02/11 01:46:26;;;;;;;;;;;;;;;9.41;89.02;97795.39;137140;1272;22451;-76
2024/02/11 01:49:30;;;;;;;;;;;;;;;9.40;89.06;97794.19;137126;1276;23118;-76
2024/02/11 01:52:34;;;;;;;;;;;;;;;9.39;89.17;97791.30;137177;1276;22462;-76
2024/02/11 01:55:36;;;;;;;;;;;;;;;9.37;89.17;97787.32;137187;1276;22402;-76
2024/02/11 01:58:37;;;;;;;;;;;;;;;9.35;89.41;97791.00;137199;1276;22638;-75
2024/02/11 02:01:38;;;;;;;;;;;;;;;9.34;89.53;97786.94;137175;1276;23033;-76
2024/02/11 02:04:39;;;;;;;;;;;;;;;9.36;89.60;97786.59;137175;1263;22479;-75
2024/02/11 02:07:40;;;;;;;;;;;;;;;9.38;89.64;97786.87;137143;1276;23201;-77
2024/02/11 02:10:43;;;;;;;;;;;;;;;9.43;89.83;97785.65;137114;1276;22426;-75
2024/02/11 02:13:52;;;;;;;;;;;;;;;9.47;89.78;97788.30;137141;1276;23160;-75
2024/02/11 02:16:56;;;;;;;;;;;;;;;9.49;89.85;97789.95;137142;1276;23017;-75
2024/02/11 02:19:57;;;;;;;;;;;;;;;9.50;90.08;97786.02;137170;1276;22384;-75
2024/02/11 02:23:06;;;;;;;;;;;;;;;9.50;90.03;97787.06;137142;1276;22424;-75
2024/02/11 02:26:07;;;;;;;;;;;;;;;9.49;90.21;97789.06;137175;1272;23714;-75
2024/02/11 02:29:08;;;;;;;;;;;;;;;9.49;90.44;97785.39;137165;1276;22398;-75
2024/02/11 02:32:11;;;;;;;;;;;;;;;9.50;90.37;97783.80;137166;1276;23236;-76
2024/02/11 02:35:33;;;;;;;;;;;;;;;9.53;90.43;97781.34;137170;1276;23152;-75
2024/02/11 02:38:34;;;;;;;;;;;;;;;9.54;90.42;97781.98;137181;1277;22428;-76
2024/02/11 02:41:34;;;;;;;;;;;;;;;9.56;90.48;97778.98;137160;1276;23107;-76
2024/02/11 02:44:37;;;;;;;;;;;;;;;9.56;90.39;97777.05;137136;1274;23147;-75
2024/02/11 02:47:38;;;;;;;;;;;;;;;9.55;90.32;97781.64;137138;1275;22398;-76
2024/02/11 02:50:43;;;;;;;;;;;;;;;9.56;90.50;97776.66;137165;1276;23374;-75
2024/02/11 02:53:44;;;;;;;;;;;;;;;9.56;90.34;97777.69;137087;1276;22978;-76
2024/02/11 02:56:50;;;;;;;;;;;;;;;9.56;90.39;97779.31;137183;1276;23075;-76
2024/02/11 02:59:51;;;;;;;;;;;;;;;9.53;90.25;97783.12;137152;1276;22914;-76
2024/02/11 03:03:07;;;;;;;;;;;;;;;9.54;90.16;97778.96;137125;1276;23112;-75
2024/02/11 03:06:08;;;;;;;;;;;;;;;9.55;90.22;97776.34;137134;1276;23041;-75
2024/02/11 03:09:09;;;;;;;;;;;;;;;9.55;90.17;97773.25;137170;1276;22400;-75
2024/02/11 03:12:10;;;;;;;;;;;;;;;9.55;89.97;97775.48;137162;1276;23160;-76
2024/02/11 03:15:21;;;;;;;;;;;;;;;9.56;90.06;97772.39;137170;1276;23102;-75
2024/02/11 03:18:22;;;;;;;;;;;;;;;9.58;89.95;97776.37;137119;1274;22360;-76
2024/02/11 03:25:06;;;;;;;;;;;;;;;9.58;89.87;97772.30;137111;1276;23723;-75
2024/02/11 03:28:30;;;;;;;;;;;;;;;9.56;89.97;97772.88;137121;1276;22410;-76
2024/02/11 03:31:54;;;;;;;;;;;;;;;9.55;90.10;97768.12;137076;1276;23486;-76
2024/02/11 03:34:54;;;;;;;;;;;;;;;9.54;90.16;97767.08;137108;1276;23161;-75
2024/02/11 03:37:58;;;;;;;;;;;;;;;9.53;90.33;97767.48;137159;1276;22379;-75
2024/02/11 03:41:02;;;;;;;;;;;;;;;9.53;90.45;97767.37;136960;1276;22429;-76
2024/02/11 03:44:04;;;;;;;;;;;;;;;9.51;90.56;97768.52;137146;1276;22400;-75
2024/02/11 03:47:05;;;;;;;;;;;;;;;9.48;90.72;97767.57;137168;1273;22449;-75
2024/02/11 03:50:09;;;;;;;;;;;;;;;9.45;90.64;97764.20;136912;1276;22403;-75
2024/02/11 03:53:10;;;;;;;;;;;;;;;9.46;90.90;97762.14;137174;1276;23186;-75
2024/02/11 03:56:11;;;;;;;;;;;;;;;9.46;90.92;97764.09;137117;1276;23117;-75
2024/02/11 03:59:11;;;;;;;;;;;;;;;9.46;91.07;97753.49;137149;1276;23627;-76
2024/02/11 04:02:12;;;;;;;;;;;;;;;9.47;91.09;97756.06;137135;1277;23244;-75
2024/02/11 04:05:23;;;;;;;;;;;;;;;;;;;;;
2024/02/11 04:09:00;;;;;;;;;;;;;;;;;;;;;
2024/02/11 04:12:21;;;;;;;;;;;;;;;9.45;91.52;97755.98;137191;1276;22290;-75
2024/02/11 04:19:47;;;;;;;;;;;;;;;9.41;91.89;97749.39;136847;1276;22507;-76
2024/02/11 04:22:51;;;;;;;;;;;;;;;9.40;91.95;97746.21;137214;1276;22416;-76
2024/02/11 04:25:52;;;;;;;;;;;;;;;9.38;92.03;97748.14;137193;1276;23026;-76
2024/02/11 04:28:53;;;;;;;;;;;;;;;9.37;92.39;97744.64;137183;1276;23008;-77
2024/02/11 04:32:01;;;;;;;;;;;;;;;9.35;92.30;97744.42;137167;1276;22385;-77
2024/02/11 04:35:36;;;;;;;;;;;;;;;9.33;92.39;97742.97;136980;1276;22551;-76
2024/02/11 04:38:58;;;;;;;;;;;;;;;9.30;92.78;97741.94;137166;1276;23142;-76
2024/02/11 04:42:09;;;;;;;;;;;;;;;9.30;93.00;97739.62;137121;1276;22295;-76
2024/02/11 04:45:33;;;;;;;;;;;;;;;9.33;92.83;97732.23;137155;1276;22443;-76
2024/02/11 04:48:34;;;;;;;;;;;;;;;9.33;92.92;97732.55;137184;1273;23264;-77
2024/02/11 04:51:35;;;;;;;;;;;;;;;9.34;93.06;97732.95;137202;1276;23327;-77
2024/02/11 04:54:35;;;;;;;;;;;;;;;9.35;93.02;97727.74;137158;1276;23133;-76
2024/02/11 04:57:37;;;;;;;;;;;;;;;9.35;93.13;97728.23;137156;1276;22430;-76
2024/02/11 05:00:40;;;;;;;;;;;;;;;9.35;93.22;97728.88;137164;1276;22389;-78
2024/02/11 05:03:44;;;;;;;;;;;;;;;9.36;93.33;97722.71;136966;1276;23163;-78
2024/02/11 05:06:46;;;;;;;;;;;;;;;9.38;93.67;97728.11;137200;1277;22895;-78
2024/02/11 05:09:47;;;;;;;;;;;;;;;9.36;93.86;97717.95;137210;1277;22854;-77
2024/02/11 05:12:49;;;;;;;;;;;;;;;9.33;94.14;97720.55;137193;1277;22404;-78
2024/02/11 05:15:50;;;;;;;;;;;;;;;9.30;94.20;97718.17;137187;1273;22451;-77
2024/02/11 05:18:51;;;;;;;;;;;;;;;9.27;94.59;97720.23;137189;1273;22469;-78
2024/02/11 05:21:54;;;;;;;;;;;;;;;9.20;94.57;97718.29;137145;1277;22374;-77
2024/02/11 05:24:57;;;;;;;;;;;;;;;9.16;94.91;97722.27;137156;1277;22386;-78
2024/02/11 05:28:02;;;;;;;;;;;;;;;9.12;95.34;97721.89;137002;1276;22397;-77
2024/02/11 05:31:03;;;;;;;;;;;;;;;9.10;95.80;97720.86;137214;1276;22394;-77
2024/02/11 05:34:05;;;;;;;;;;;;;;;9.07;96.32;97720.11;137130;1276;22401;-77
2024/02/11 05:37:07;;;;;;;;;;;;;;;9.04;96.53;97717.98;137190;1276;22427;-77
2024/02/11 05:40:10;;;;;;;;;;;;;;;8.99;96.56;97717.35;137194;1276;22387;-77
2024/02/11 05:43:20;;;;;;;;;;;;;;;8.96;97.19;97716.64;137147;1276;22415;-77
2024/02/11 05:46:21;;;;;;;;;;;;;;;8.96;97.24;97715.87;136972;1276;22307;-77
2024/02/11 05:49:24;;;;;;;;;;;;;;;8.94;97.68;97715.71;137187;1273;22404;-77
2024/02/11 05:52:41;;;;;;;;;;;;;;;8.94;97.92;97717.77;137195;1277;22285;-77
2024/02/11 05:56:01;;;;;;;;;;;;;;;8.96;98.51;97718.63;137180;1276;22378;-77
2024/02/11 05:59:11;;;;;;;;;;;;;;;8.96;98.65;97716.84;137153;1276;23302;-77
2024/02/11 06:02:14;;;;;;;;;;;;;;;8.96;98.73;97717.52;137171;1276;22322;-77
2024/02/11 06:05:18;;;;;;;;;;;;;;;8.95;99.26;97713.48;137061;1276;22903;-77
2024/02/11 06:08:39;;;;;;;;;;;;;;;;;;;;;
2024/02/11 06:12:05;;;;;;;;;;;;;;;;;;;;;
2024/02/11 06:15:17;;;;;;;;;;;;;;;8.88;99.71;97718.20;137134;1277;22269;-79
2024/02/11 06:18:17;;;;;;;;;;;;;;;8.86;99.94;97717.61;137133;1276;23582;-76
2024/02/11 06:21:18;;;;;;;;;;;;;;;8.86;100.00;97719.23;137160;1276;22373;-76
2024/02/11 06:24:19;;;;;;;;;;;;;;;8.85;100.00;97716.36;137182;1276;22390;-77
2024/02/11 06:27:28;;;;;;;;;;;;;;;8.85;100.00;97724.77;137165;1276;23227;-76
2024/02/11 06:30:36;;;;;;;;;;;;;;;8.86;100.00;97715.86;137223;1276;22999;-76
2024/02/11 06:33:52;;;;;;;;;;;;;;;8.85;100.00;97722.14;137140;1276;22406;-77
2024/02/11 06:37:05;;;;;;;;;;;;;;;8.84;100.00;97724.55;137196;1276;22310;-79
2024/02/11 06:40:13;;;;;;;;;;;;;;;8.84;100.00;97729.23;137003;1276;22400;-78
2024/02/11 06:44:00;;;;;;;;;;;;;;;;;;;;;
2024/02/11 06:47:21;;;;;;;;;;;;;;;8.84;100.00;97728.33;137185;1276;22444;-77
2024/02/11 06:50:25;;;;;;;;;;;;;;;8.83;100.00;97728.13;136957;1276;23096;-78
2024/02/11 06:53:29;;;;;;;;;;;;;;;8.83;100.00;97727.27;137206;1276;22394;-77
2024/02/11 06:56:34;;;;;;;;;;;;;;;8.81;100.00;97728.55;137120;1276;22375;-76
2024/02/11 06:59:50;;;;;;;;;;;;;;;;;;;;;
2024/02/11 07:03:03;;;;;;;;;;;;;;;8.80;100.00;97724.61;137171;1276;23653;-77
2024/02/11 07:06:21;;;;;;;;;;;;;;;;;;;;;
2024/02/11 07:09:44;;;;;;;;;;;;;;;;;;;;;
2024/02/11 07:13:03;;;;;;;;;;;;;;;;;;;;;
2024/02/11 07:16:27;;;;;;;;;;;;;;;8.68;100.00;97721.76;137136;1276;22255;-77
2024/02/11 07:19:29;;;;;;;;;;;;;;;8.64;100.00;97725.96;136983;1276;22298;-77
2024/02/11 07:22:30;;;;;;;;;;;;;;;8.60;100.00;97723.60;137164;1276;23126;-77
2024/02/11 07:25:52;;;;;;;;;;;;;;;8.56;100.00;97723.08;137151;1276;22915;-76
2024/02/11 07:29:00;;;;;;;;;;;;;;;8.51;100.00;97722.34;137096;1276;23032;-78
2024/02/11 07:33:02;;;;;;;;;;;;;;;;;;;;;
2024/02/11 07:36:44;;;;;;;;;;;;;;;;;;;;;
2024/02/11 07:40:01;;;;;;;;;;;;;;;;;;;;;
2024/02/11 07:43:55;;;;;;;;;;;;;;;;;;;;;
2024/02/11 07:51:44;;;;;;;;;;;;;;;;;;;;;
2024/02/11 07:54:45;;;;;;;;;;;;;;;8.48;100.00;97724.15;137142;1277;22308;-77
2024/02/11 07:57:46;;;;;;;;;;;;;;;8.50;100.00;97722.41;137142;1276;23182;-77
2024/02/11 08:00:46;;;;;;;;;;;;;;;8.52;100.00;97723.48;137149;1276;22443;-76
2024/02/11 08:03:47;;;;;;;;;;;;;;;8.55;100.00;97723.62;137170;1276;22943;-77
2024/02/11 08:06:48;;;;;;;;;;;;;;;8.55;100.00;97723.16;137142;1276;22399;-77
2024/02/11 08:09:49;;;;;;;;;;;;;;;8.53;100.00;97721.96;137098;1276;23225;-75
2024/02/11 08:12:52;;;;;;;;;;;;;;;8.52;100.00;97724.45;137177;1276;22448;-75
2024/02/11 08:15:57;;;;;;;;;;;;;;;8.50;100.00;97725.55;136985;1264;22371;-75
2024/02/11 08:18:57;;;;;;;;;;;;;;;8.47;100.00;97722.39;137136;1276;22396;-77
2024/02/11 08:21:58;;;;;;;;;;;;;;;8.46;100.00;97722.98;137131;1273;23066;-79
2024/02/11 08:24:59;;;;;;;;;;;;;;;8.45;100.00;97725.46;136945;1276;22387;-76
2024/02/11 08:27:59;;;;;;;;;;;;;;;8.43;100.00;97720.48;137127;1276;22457;-75
2024/02/11 08:31:00;;;;;;;;;;;;;;;8.42;100.00;97716.61;137128;1276;22477;-77
2024/02/11 08:34:00;;;;;;;;;;;;;;;8.43;100.00;97714.98;136975;1276;22419;-76
2024/02/11 08:37:01;;;;;;;;;;;;;;;8.43;100.00;97709.69;137085;1276;22399;-77
2024/02/11 08:40:03;;;;;;;;;;;;;;;8.44;100.00;97708.22;137075;1276;22394;-78
2024/02/11 08:43:27;;;;;;;;;;;;;;;;;;;;;
2024/02/11 08:46:27;;;;;;;;;;;;;;;8.48;100.00;97706.18;137097;1276;22352;-76
2024/02/11 08:49:40;;;;;;;;;;;;;;;8.49;100.00;97709.86;137071;1276;22384;-76
2024/02/11 08:52:43;;;;;;;;;;;;;;;8.53;100.00;97705.29;137141;1276;22279;-76
2024/02/11 08:55:53;;;;;;;;;;;;;;;8.56;100.00;97704.86;137097;1276;22347;-78
2024/02/11 08:59:11;;;;;;;;;;;;;;;8.61;100.00;97700.04;137079;1276;22318;-79
2024/02/11 09:02:32;;;;;;;;;;;;;;;8.64;100.00;97699.86;137118;1276;23327;-77
2024/02/11 09:05:34;;;;;;;;;;;;;;;8.68;100.00;97698.98;137085;1276;22412;-76
2024/02/11 09:08:34;;;;;;;;;;;;;;;8.72;100.00;97700.58;137029;1276;23096;-77
2024/02/11 09:11:35;;;;;;;;;;;;;;;8.77;100.00;97700.05;137059;1276;22411;-76
2024/02/11 09:14:38;;;;;;;;;;;;;;;8.81;100.00;97696.98;137049;1276;23201;-76
2024/02/11 09:17:43;;;;;;;;;;;;;;;8.83;100.00;97699.48;137081;1276;22414;-76
2024/02/11 09:20:46;;;;;;;;;;;;;;;8.86;100.00;97700.56;137149;1276;22547;-77
2024/02/11 09:23:57;;;;;;;;;;;;;;;8.88;100.00;97696.24;137151;1276;23374;-75
2024/02/11 09:27:05;;;;;;;;;;;;;;;8.90;100.00;97697.27;137090;1276;22327;-75
2024/02/11 09:30:21;;;;;;;;;;;;;;;8.93;100.00;97690.30;137061;1276;23250;-77
2024/02/11 09:33:33;;;;;;;;;;;;;;;8.96;100.00;97693.25;134580;1276;3218861;-80
2024/02/11 09:36:47;;;;;;;;;;;;;;;9.01;100.00;97689.83;137099;1271;22420;-76
2024/02/11 09:39:58;;;;;;;;;;;;;;;9.04;100.00;97687.28;137111;1276;22411;-77
2024/02/11 09:43:02;;;;;;;;;;;;;;;9.09;100.00;97693.64;136925;1276;22299;-76
2024/02/11 09:46:15;;;;;;;;;;;;;;;9.12;100.00;97691.90;137106;1276;22371;-76
2024/02/11 09:49:50;;;;;;;;;;;;;;;;;;;;;
2024/02/11 09:53:42;;;;;;;;;;;;;;;;;;;;;
2024/02/11 09:58:08;;;;;;;;;;;;;;;9.16;100.00;97689.26;137126;1276;22401;-76
2024/02/11 10:01:07;;;;;;;;;;;;;;;9.19;100.00;97688.34;136870;1276;22456;-76
2024/02/11 10:04:11;;;;;;;;;;;;;;;9.20;100.00;97685.73;137164;1276;22320;-76
2024/02/11 10:07:22;;;;;;;;;;;;;;;9.23;100.00;97680.42;137108;1270;23194;-75
2024/02/11 10:10:23;;;;;;;;;;;;;;;9.25;100.00;97680.17;137082;1276;22925;-79
2024/02/11 10:13:25;;;;;;;;;;;;;;;9.28;100.00;97676.66;137068;1276;23130;-77
2024/02/11 10:16:29;;;;;;;;;;;;;;;9.30;100.00;97679.80;137083;1276;23135;-77
2024/02/11 10:19:30;;;;;;;;;;;;;;;9.34;100.00;97674.05;137117;1276;23061;-76
2024/02/11 10:22:31;;;;;;;;;;;;;;;9.38;100.00;97677.86;137094;1276;22401;-76
2024/02/11 10:25:33;;;;;;;;;;;;;;;9.39;100.00;97678.86;137093;1276;22390;-77
2024/02/11 10:28:37;;;;;;;;;;;;;;;9.38;100.00;97680.06;136957;1276;23281;-82
2024/02/11 10:31:40;;;;;;;;;;;;;;;9.38;100.00;97678.92;137104;1276;23132;-77
2024/02/11 10:34:42;;;;;;;;;;;;;;;9.36;100.00;97672.20;137095;1276;23065;-76
2024/02/11 10:37:45;;;;;;;;;;;;;;;9.34;100.00;97670.86;137125;1276;22353;-77
2024/02/11 10:40:52;;;;;;;;;;;;;;;9.31;100.00;97672.36;137089;1276;23049;-76
2024/02/11 10:44:13;;;;;;;;;;;;;;;9.29;100.00;97668.06;137057;1276;22602;-76
2024/02/11 10:47:14;;;;;;;;;;;;;;;9.27;100.00;97666.65;137113;1276;22414;-76
2024/02/11 10:50:17;;;;;;;;;;;;;;;9.26;100.00;97664.86;137127;1276;22374;-76
2024/02/11 10:53:46;;;;;;;;;;;;;;;9.26;100.00;97660.84;137141;1276;23126;-76
2024/02/11 11:00:34;;;;;;;;;;;;;;;9.28;100.00;97662.53;137013;1276;22565;-78
2024/02/11 11:03:39;;;;;;;;;;;;;;;9.28;100.00;97654.88;137081;1276;22967;-78
2024/02/11 11:06:41;;;;;;;;;;;;;;;9.29;100.00;97658.37;137136;1276;22400;-77
2024/02/11 11:09:45;;;;;;;;;;;;;;;9.29;100.00;97655.65;137075;1276;23040;-77
2024/02/11 11:13:02;;;;;;;;;;;;;;;9.29;100.00;97656.34;137129;1276;22761;-77
2024/02/11 11:16:41;;;;;;;;;;;;;;;;;;;;;
2024/02/11 11:19:56;;;;;;;;;;;;;;;;;;;;;
2024/02/11 11:23:12;;;;;;;;;;;;;;;9.34;100.00;97653.56;137114;1276;22310;-77
2024/02/11 11:26:23;;;;;;;;;;;;;;;9.35;100.00;97653.35;137052;1276;22457;-77
2024/02/11 11:29:32;;;;;;;;;;;;;;;9.37;100.00;97651.41;137073;1276;23351;-81
2024/02/11 11:32:33;;;;;;;;;;;;;;;9.38;100.00;97655.11;136982;1276;22305;-77
2024/02/11 11:35:43;;;;;;;;;;;;;;;9.37;100.00;97651.23;137100;1276;22297;-77
2024/02/11 11:38:44;;;;;;;;;;;;;;;9.39;100.00;97650.02;137112;1276;22382;-77
2024/02/11 11:41:48;;;;;;;;;;;;;;;9.39;100.00;97650.17;137068;1276;22407;-77
2024/02/11 11:44:48;;;;;;;;;;;;;;;9.39;100.00;97650.53;137073;1276;22420;-78
2024/02/11 11:47:51;;;;;;;;;;;;;;;9.38;100.00;97647.33;137132;1276;22401;-77
2024/02/11 11:50:54;;;;;;;;;;;;;;;9.39;100.00;97646.30;137075;1276;22417;-78
2024/02/11 11:53:55;;;;;;;;;;;;;;;9.41;100.00;97643.60;137043;1276;22399;-78
2024/02/11 11:58:13;;;;;;;;;;;;;;;9.45;100.00;97643.23;137059;1276;22360;-77
2024/02/11 12:02:13;;;;;;;;;;;;;;;9.48;100.00;97643.65;137050;1276;22472;-77
2024/02/11 12:05:22;;;;;;;;;;;;;;;;;;;;;
2024/02/11 12:12:49;;;;;;;;;;;;;;;9.55;100.00;97641.37;137058;1276;22451;-78
2024/02/11 12:21:13;;;;;;;;;;;;;;;9.61;100.00;97636.90;136922;1276;22628;-77
2024/02/11 12:24:36;;;;;;;;;;;;;;;;;;;;;
2024/02/11 12:28:43;;;;;;;;;;;;;;;;;;;;;
2024/02/11 12:32:34;;;;;;;;;;;;;;;;;;;;;
2024/02/11 12:36:10;;;;;;;;;;;;;;;9.71;100.00;97627.02;137057;1276;23181;-77
2024/02/11 12:39:12;;;;;;;;;;;;;;;9.71;100.00;97625.83;137075;1276;22309;-77
2024/02/11 12:42:16;;;;;;;;;;;;;;;9.70;100.00;97627.14;137084;1276;22397;-77
2024/02/11 12:45:18;;;;;;;;;;;;;;;9.70;100.00;97624.59;137074;1276;23598;-77
2024/02/11 12:48:21;;;;;;;;;;;;;;;9.70;100.00;97624.75;137133;1276;23633;-78
2024/02/11 12:51:35;;;;;;;;;;;;;;;;;;;;;
2024/02/11 12:54:47;;;;;;;;;;;;;;;9.68;100.00;97623.22;137125;1276;22327;-78
2024/02/11 12:59:14;;;;;;;;;;;;;;;9.68;100.00;97624.04;136991;1276;22431;-77
2024/02/11 13:15:10;;;;;;;;;;;;;;;9.64;100.00;97624.81;137088;1276;23507;-77
2024/02/11 13:18:46;;;;;;;;;;;;;;;;;;;;;
2024/02/11 13:21:59;;;;;;;;;;;;;;;9.60;100.00;97626.36;137062;1276;22421;-77
2024/02/11 13:25:22;;;;;;;;;;;;;;;9.57;100.00;97626.73;137139;1276;22446;-77
2024/02/11 13:28:33;;;;;;;;;;;;;;;9.54;100.00;97633.73;137122;1276;22297;-78
2024/02/11 13:31:48;;;;;;;;;;;;;;;9.53;100.00;97632.94;137100;1276;22283;-77
2024/02/11 13:35:19;;;;;;;;;;;;;;;9.50;100.00;97627.95;137122;1276;22462;-77
2024/02/11 13:38:34;;;;;;;;;;;;;;;9.50;100.00;97628.77;137090;1276;22330;-77
2024/02/11 13:42:06;;;;;;;;;;;;;;;9.50;100.00;97630.52;137134;1276;22998;-77
2024/02/11 13:45:30;;;;;;;;;;;;;;;;;;;;;
2024/02/11 13:49:14;;;;;;;;;;;;;;;9.48;100.00;97627.77;137090;1276;22571;-76
2024/02/11 13:52:19;;;;;;;;;;;;;;;9.47;100.00;97623.23;137129;1276;22282;-76
2024/02/11 13:55:20;;;;;;;;;;;;;;;9.46;100.00;97629.91;137101;1276;22389;-77
2024/02/11 13:58:21;;;;;;;;;;;;;;;9.48;100.00;97630.57;137133;1276;22440;-77
2024/02/11 14:01:22;;;;;;;;;;;;;;;9.50;100.00;97629.98;137165;1276;22395;-75
2024/02/11 14:04:29;;;;;;;;;;;;;;;9.50;100.00;97628.52;137129;1276;22439;-76
2024/02/11 14:07:37;;;;;;;;;;;;;;;9.51;100.00;97630.86;137192;1276;22324;-76
2024/02/11 14:10:44;;;;;;;;;;;;;;;9.51;100.00;97627.29;137101;1276;22353;-76
2024/02/11 14:13:47;;;;;;;;;;;;;;;9.52;100.00;97623.81;137097;1276;22437;-76
2024/02/11 14:17:01;;;;;;;;;;;;;;;;;;;;;
2024/02/11 14:20:10;;;;;;;;;;;;;;;9.54;100.00;97625.70;137090;1276;22566;-77
2024/02/11 14:23:13;;;;;;;;;;;;;;;9.52;100.00;97626.05;137124;1276;22466;-78
2024/02/11 14:26:13;;;;;;;;;;;;;;;9.51;100.00;97627.44;137154;1276;22434;-76
2024/02/11 14:29:14;;;;;;;;;;;;;;;9.51;100.00;97625.20;137165;1276;22464;-76
2024/02/11 14:32:18;;;;;;;;;;;;;;;9.50;100.00;97624.00;137097;1276;22391;-76
2024/02/11 14:35:24;;;;;;;;;;;;;;;9.48;100.00;97627.55;137147;1276;22397;-77
2024/02/11 14:38:42;;;;;;;;;;;;;;;9.47;100.00;97631.32;137159;1276;22412;-76
2024/02/11 14:41:44;;;;;;;;;;;;;;;9.45;100.00;97633.09;137142;1276;22999;-76
2024/02/11 14:44:49;;;;;;;;;;;;;;;9.43;100.00;97633.68;137110;1276;22409;-76
2024/02/11 14:47:50;;;;;;;;;;;;;;;9.41;100.00;97632.57;137135;1276;22417;-76
2024/02/11 14:50:50;;;;;;;;;;;;;;;9.38;100.00;97635.07;137138;1276;22385;-76
2024/02/11 14:53:53;;;;;;;;;;;;;;;9.36;100.00;97634.15;137161;1276;22665;-77
2024/02/11 14:56:53;;;;;;;;;;;;;;;9.34;100.00;97635.88;137137;1276;23335;-76
2024/02/11 14:59:56;;;;;;;;;;;;;;;9.32;100.00;97636.23;137118;1276;22379;-76
2024/02/11 15:03:07;;;;;;;;;;;;;;;9.30;100.00;97633.98;137125;1276;22283;-77
2024/02/11 15:06:20;;;;;;;;;;;;;;;9.29;100.00;97636.10;137171;1276;23073;-76
2024/02/11 15:09:32;;;;;;;;;;;;;;;9.27;100.00;97639.49;137132;1276;23127;-76
2024/02/11 15:12:34;;;;;;;;;;;;;;;9.25;100.00;97639.89;137175;1276;23270;-76
2024/02/11 15:15:36;;;;;;;;;;;;;;;9.23;100.00;97637.91;137113;1276;22426;-77
2024/02/11 15:18:40;;;;;;;;;;;;;;;9.21;100.00;97636.52;137146;1276;22394;-76
2024/02/11 15:21:44;;;;;;;;;;;;;;;9.19;100.00;97639.29;137108;1271;22289;-75
2024/02/11 15:24:48;;;;;;;;;;;;;;;9.17;100.00;97641.98;137091;1276;23276;-76
2024/02/11 15:27:59;;;;;;;;;;;;;;;9.14;100.00;97638.23;137127;1276;22400;-75
2024/02/11 15:31:00;;;;;;;;;;;;;;;9.09;100.00;97639.95;137137;1276;23613;-75
2024/02/11 15:34:04;;;;;;;;;;;;;;;9.06;100.00;97639.90;137115;1276;23149;-76
2024/02/11 15:37:14;;;;;;;;;;;;;;;9.03;100.00;97639.80;137142;1276;22272;-75
2024/02/11 15:40:16;;;;;;;;;;;;;;;9.01;100.00;97638.20;137152;1276;22403;-75
2024/02/11 15:43:18;;;;;;;;;;;;;;;8.97;100.00;97642.45;137156;1276;23140;-76
2024/02/11 15:46:20;;;;;;;;;;;;;;;8.96;100.00;97646.63;137142;1276;23150;-73
2024/02/11 15:49:35;;;;;;;;;;;;;;;;;;;;;
2024/02/11 16:00:58;;;;;;;;;;;;;;;;;;;;;
2024/02/11 16:04:29;;;;;;;;;;;;;;;;;;;;;
2024/02/11 16:08:01;;;;;;;;;;;;;;;8.87;100.00;97662.23;137069;1276;22504;-76
2024/02/11 16:15:29;;;;;;;;;;;;;;;8.82;100.00;97663.20;136976;1276;22435;-77
2024/02/11 16:18:29;;;;;;;;;;;;;;;8.80;100.00;97665.20;137130;1276;23054;-78
2024/02/11 16:21:31;;;;;;;;;;;;;;;8.78;100.00;97666.73;137158;1277;22384;-76
2024/02/11 16:24:31;;;;;;;;;;;;;;;8.76;100.00;97667.92;137156;1276;23225;-77
2024/02/11 16:27:35;;;;;;;;;;;;;;;8.74;100.00;97672.02;137166;1276;22471;-76
2024/02/11 16:30:48;;;;;;;;;;;;;;;8.72;100.00;97673.02;137150;1276;22419;-77
2024/02/11 16:34:08;;;;;;;;;;;;;;;8.70;100.00;97674.86;137140;1276;22291;-76
2024/02/11 16:37:14;;;;;;;;;;;;;;;8.70;100.00;97675.11;137147;1276;22450;-76
2024/02/11 16:40:20;;;;;;;;;;;;;;;8.69;100.00;97679.45;137145;1276;22296;-76
2024/02/11 16:43:40;;;;;;;;;;;;;;;;;;;;;
2024/02/11 16:46:51;;;;;;;;;;;;;;;8.68;100.00;97683.13;137122;1276;22292;-78
2024/02/11 16:49:55;;;;;;;;;;;;;;;8.67;100.00;97681.50;137141;1276;22384;-77
2024/02/11 16:52:56;;;;;;;;;;;;;;;8.67;100.00;97687.35;137156;1277;22404;-77
2024/02/11 16:56:03;;;;;;;;;;;;;;;8.66;100.00;97684.15;137163;1276;23465;-75
2024/02/11 16:59:40;;;;;;;;;;;;;;;8.65;100.00;97691.84;137179;1277;22425;-75
2024/02/11 17:04:02;;;;;;;;;;;;;;;8.64;100.00;97694.80;137090;1277;22504;-75
2024/02/11 17:07:09;;;;;;;;;;;;;;;8.63;100.00;97699.75;137168;1276;22451;-76
2024/02/11 17:11:23;;;;;;;;;;;;;;;8.61;100.00;97701.30;137158;1276;22435;-77
2024/02/11 17:14:12;;;;;;;;;;;;;;;8.61;100.00;97708.29;137061;1277;22893;-76
2024/02/11 17:17:13;;;;;;;;;;;;;;;8.61;100.00;97712.36;137109;1276;22419;-75
2024/02/11 17:20:22;;;;;;;;;;;;;;;8.59;100.00;97711.67;137122;1276;22370;-75
2024/02/11 17:23:24;;;;;;;;;;;;;;;8.59;100.00;97713.19;137121;1277;22367;-76
2024/02/11 17:27:28;;;;;;;;;;;;;;;8.57;100.00;97714.30;137079;1277;22403;-76
2024/02/11 17:30:55;;;;;;;;;;;;;;;;;;;;;
2024/02/11 17:34:36;;;;;;;;;;;;;;;8.55;100.00;97713.86;136904;1276;22510;-76
2024/02/11 17:38:38;;;;;;;;;;;;;;;8.55;100.00;97714.02;137002;1276;22474;-74
2024/02/11 17:41:54;;;;;;;;;;;;;;;;;;;;;
2024/02/11 17:45:15;;;;;;;;;;;;;;;8.55;100.00;97717.92;137021;1276;22437;-75
2024/02/11 17:48:16;;;;;;;;;;;;;;;8.55;100.00;97721.98;137136;1277;22442;-76
2024/02/11 17:51:25;;;;;;;;;;;;;;;8.55;100.00;97723.69;137127;1277;22376;-79
2024/02/11 17:54:50;;;;;;;;;;;;;;;8.55;100.00;97724.80;137149;1277;22266;-79
2024/02/11 17:57:55;;;;;;;;;;;;;;;8.55;100.00;97718.50;137118;1277;22468;-77
2024/02/11 18:05:12;;;;;;;;;;;;;;;;;;;;;
2024/02/11 18:08:51;;;;;;;;;;;;;;;8.54;100.00;97727.54;136911;1276;23084;-77
2024/02/11 18:12:07;;;;;;;;;;;;;;;;;;;;;
2024/02/11 18:15:10;;;;;;;;;;;;;;;8.54;100.00;97734.04;136988;1276;22311;-77
2024/02/11 18:18:19;;;;;;;;;;;;;;;8.53;100.00;97736.76;137132;1276;22259;-78
2024/02/11 18:21:23;;;;;;;;;;;;;;;8.53;100.00;97737.54;137178;1276;22947;-79
2024/02/11 18:24:28;;;;;;;;;;;;;;;8.53;100.00;97738.23;136959;1276;22846;-77